Time;durP1;ratioP1;P1;durP2;ratioP2;P2;SDS_P1;SDS_P2;PMS_P1;PMS_P2;Temp;Humidity;BMP_temperature;BMP_pressure;BME280_temperature;BME280_humidity;BME280_pressure;Samples;Min_cycle;Max_cycle;Signal;HPM_P1;HPM_P2
2021/07/15 03:46:48;;;;;;;19.88;11.82;;;;;;;17.19;85.86;99591.25;5007345;28;105919;-74
2021/07/15 03:49:19;;;;;;;24.92;14.10;;;;;;;17.25;86.25;99581.47;5004275;28;106280;-78
2021/07/15 03:51:49;;;;;;;27.40;14.05;;;;;;;17.31;86.02;99588.63;5005228;28;106248;-75
2021/07/15 03:54:20;;;;;;;28.55;13.13;;;;;;;17.36;86.56;99591.44;5004822;28;105938;-78
2021/07/15 03:56:48;;;;;;;25.58;13.27;;;;;;;17.43;86.16;99602.13;5004314;28;106057;-76
2021/07/15 03:59:15;;;;;;;24.85;13.73;;;;;;;17.51;86.51;99601.78;5005541;28;106046;-76
2021/07/15 04:01:42;;;;;;;21.60;13.30;;;;;;;17.55;86.38;99608.34;5004627;28;106155;-77
2021/07/15 04:04:08;;;;;;;24.02;11.95;;;;;;;17.65;86.88;99609.66;5005346;28;106095;-76
2021/07/15 04:06:35;;;;;;;28.10;12.43;;;;;;;17.71;86.51;99606.03;5004006;28;106147;-77
2021/07/15 04:09:03;;;;;;;20.10;12.93;;;;;;;17.78;86.39;99604.06;5006192;28;106422;-78
2021/07/15 04:11:30;;;;;;;23.55;12.07;;;;;;;17.80;86.57;99599.25;5004652;28;106234;-77
2021/07/15 04:13:56;;;;;;;16.73;11.18;;;;;;;17.85;86.24;99601.25;5004658;28;106368;-77
2021/07/15 04:17:03;;;;;;;21.25;10.50;;;;;;;17.88;86.29;99608.88;5004262;28;106188;-77
2021/07/15 04:19:30;;;;;;;15.77;9.60;;;;;;;17.92;86.23;99610.09;5001531;28;106113;-73
2021/07/15 04:21:55;;;;;;;18.48;9.15;;;;;;;17.98;86.08;99611.84;5005331;28;106554;-74
2021/07/15 04:24:24;;;;;;;19.27;10.18;;;;;;;18.05;86.41;99604.47;5004971;28;105872;-74
2021/07/15 04:26:50;;;;;;;21.48;10.82;;;;;;;18.10;86.16;99603.78;5004093;28;105981;-71
2021/07/15 04:29:18;;;;;;;19.10;10.57;;;;;;;18.13;85.90;99606.00;5005005;28;105976;-76
2021/07/15 04:31:51;;;;;;;22.27;10.93;;;;;;;18.17;85.77;99599.06;5003834;28;106185;-74
2021/07/15 04:34:18;;;;;;;19.52;10.65;;;;;;;18.26;85.86;99605.75;5003937;28;105984;-72
2021/07/15 04:36:45;;;;;;;16.13;9.18;;;;;;;18.38;86.15;99621.09;5003741;28;105975;-73
2021/07/15 04:39:12;;;;;;;21.40;9.55;;;;;;;18.51;86.20;99618.16;5005108;28;105850;-71
2021/07/15 04:41:38;;;;;;;18.60;10.65;;;;;;;18.57;85.82;99617.19;5004509;28;106173;-72
2021/07/15 04:44:04;;;;;;;18.60;10.15;;;;;;;18.63;85.70;99622.72;5003365;28;106101;-71
2021/07/15 04:46:31;;;;;;;17.27;9.88;;;;;;;18.69;85.75;99619.88;5000613;28;106563;-76
2021/07/15 04:48:57;;;;;;;18.83;9.82;;;;;;;18.73;85.53;99617.53;5010669;28;106118;-73
2021/07/15 04:51:23;;;;;;;18.40;10.45;;;;;;;18.76;85.31;99609.78;5007270;27;106514;-72
2021/07/15 04:53:49;;;;;;;14.75;9.23;;;;;;;18.84;85.44;99614.00;5003164;28;105983;-74
2021/07/15 04:56:15;;;;;;;13.50;8.40;;;;;;;18.93;85.37;99612.59;5001444;28;106422;-77
2021/07/15 04:58:42;;;;;;;14.68;8.50;;;;;;;19.07;85.46;99621.22;4992216;28;106066;-75
2021/07/15 05:01:09;;;;;;;17.20;10.07;;;;;;;19.19;85.34;99606.84;4991409;28;106105;-77
2021/07/15 05:03:37;;;;;;;17.38;10.43;;;;;;;19.32;84.93;99616.56;4990626;28;106828;-79
2021/07/15 05:06:05;;;;;;;12.65;7.47;;;;;;;19.39;84.68;99612.63;4989531;28;106183;-77
2021/07/15 05:08:32;;;;;;;12.20;7.10;;;;;;;19.50;84.56;99619.03;4990211;28;105773;-76
2021/07/15 05:10:59;;;;;;;11.52;6.90;;;;;;;19.59;84.61;99619.47;4990946;28;106083;-76
2021/07/15 05:13:24;;;;;;;12.68;6.35;;;;;;;19.67;84.17;99620.94;4990746;28;106075;-74
2021/07/15 05:15:51;;;;;;;10.88;6.63;;;;;;;19.72;83.93;99619.13;4990980;28;106253;-77
2021/07/15 05:18:17;;;;;;;13.98;6.00;;;;;;;19.79;83.47;99622.50;4991835;28;106367;-72
2021/07/15 05:20:43;;;;;;;9.95;5.68;;;;;;;19.87;83.26;99617.78;4989779;28;106136;-75
2021/07/15 05:23:08;;;;;;;10.40;5.25;;;;;;;19.93;82.77;99614.94;4990022;28;106306;-72
2021/07/15 05:25:35;;;;;;;10.25;5.28;;;;;;;19.99;82.68;99609.59;4988960;28;106208;-72
2021/07/15 05:28:00;;;;;;;12.25;4.88;;;;;;;20.05;82.32;99605.91;4991115;28;106351;-74
2021/07/15 05:30:25;;;;;;;9.55;4.43;;;;;;;20.12;82.58;99609.28;4990683;28;105925;-71
2021/07/15 05:32:51;;;;;;;9.20;4.15;;;;;;;20.23;82.34;99594.81;4990488;28;106273;-73
2021/07/15 05:35:16;;;;;;;5.30;2.90;;;;;;;20.27;81.55;99600.53;4990359;28;107659;-69
2021/07/15 05:37:42;;;;;;;5.72;3.20;;;;;;;20.33;81.51;99604.16;4991367;28;106035;-73
2021/07/15 05:40:09;;;;;;;6.80;2.70;;;;;;;20.34;80.85;99614.72;4990761;28;106214;-70
2021/07/15 05:42:34;;;;;;;8.50;3.58;;;;;;;20.35;80.71;99623.66;4989839;28;106255;-71
2021/07/15 05:44:59;;;;;;;8.50;3.10;;;;;;;20.37;80.67;99633.16;4987136;28;107184;-73
2021/07/15 05:47:25;;;;;;;5.07;2.80;;;;;;;20.45;80.12;99629.22;4990782;28;105857;-74
2021/07/15 05:49:50;;;;;;;7.63;2.72;;;;;;;20.61;80.18;99644.59;4990393;28;106156;-71
2021/07/15 05:52:16;;;;;;;5.25;2.22;;;;;;;20.75;79.68;99655.06;4989080;28;105988;-72
2021/07/15 05:54:41;;;;;;;5.82;2.50;;;;;;;20.97;79.58;99655.09;4989705;28;105989;-74
2021/07/15 05:57:07;;;;;;;5.43;2.13;;;;;;;21.25;79.52;99639.69;4990483;28;106154;-73
2021/07/15 05:59:33;;;;;;;9.73;2.35;;;;;;;21.51;78.98;99635.34;4990368;28;105913;-70
2021/07/15 06:01:59;;;;;;;8.73;2.72;;;;;;;21.74;78.48;99638.84;4989846;28;106659;-70
2021/07/15 06:04:24;;;;;;;6.90;2.08;;;;;;;21.97;77.94;99643.09;4989874;28;106253;-70
2021/07/15 06:06:49;;;;;;;9.38;2.35;;;;;;;22.15;76.49;99634.53;4990487;28;105965;-69
2021/07/15 06:09:15;;;;;;;4.05;2.05;;;;;;;22.26;76.17;99643.56;4989011;28;106190;-69
2021/07/15 06:11:40;;;;;;;4.72;2.47;;;;;;;22.30;75.74;99631.13;4988765;28;106544;-72
2021/07/15 06:14:06;;;;;;;6.57;2.17;;;;;;;22.19;74.56;99634.84;4988886;28;105835;-71
2021/07/15 06:16:31;;;;;;;4.65;2.00;;;;;;;22.12;75.42;99634.25;4990249;28;105882;-75
2021/07/15 06:18:57;;;;;;;6.80;2.78;;;;;;;22.15;74.79;99639.16;4989874;28;106100;-72
2021/07/15 06:21:22;;;;;;;5.47;2.40;;;;;;;22.03;73.62;99635.81;4989298;28;107242;-70
2021/07/15 06:23:48;;;;;;;5.65;2.30;;;;;;;21.94;73.44;99641.72;4988750;28;105841;-71
2021/07/15 06:26:13;;;;;;;4.53;2.10;;;;;;;21.89;73.65;99640.88;4990272;28;106028;-69
2021/07/15 06:28:38;;;;;;;6.53;2.25;;;;;;;21.77;72.99;99639.16;4989459;28;106471;-71
2021/07/15 06:31:04;;;;;;;4.15;2.20;;;;;;;21.77;73.79;99638.31;4989642;28;105953;-71
2021/07/15 06:33:30;;;;;;;9.00;2.60;;;;;;;21.92;73.96;99630.31;4988340;28;106502;-72
2021/07/15 06:35:56;;;;;;;5.70;2.20;;;;;;;22.00;73.32;99625.50;4990355;28;106067;-69
2021/07/15 06:38:31;;;;;;;5.03;2.35;;;;;;;22.15;73.68;99620.16;4988575;28;106237;-69
2021/07/15 06:40:59;;;;;;;3.80;2.53;;;;;;;22.39;73.41;99625.22;4988574;28;105956;-69
2021/07/15 06:43:24;;;;;;;10.88;6.80;;;;;;;22.56;73.06;99631.28;4970465;28;105837;-71
2021/07/15 06:45:50;;;;;;;6.13;2.50;;;;;;;22.69;71.88;99640.03;4969266;28;108962;-72
2021/07/15 06:48:15;;;;;;;6.45;2.63;;;;;;;22.81;71.49;99629.78;4969778;28;106158;-73
2021/07/15 06:50:41;;;;;;;4.45;2.08;;;;;;;22.89;70.89;99645.56;4969018;28;111291;-79
2021/07/15 06:53:07;;;;;;;5.65;2.42;;;;;;;23.04;71.19;99635.84;4983035;28;106004;-78
2021/07/15 06:55:32;;;;;;;4.90;2.28;;;;;;;23.38;70.98;99638.16;4989743;28;106133;-77
2021/07/15 06:57:58;;;;;;;4.28;1.83;;;;;;;23.65;69.88;99652.31;4988813;28;106128;-74
2021/07/15 07:00:23;;;;;;;3.75;1.83;;;;;;;23.88;68.43;99650.19;4988440;28;106331;-75
2021/07/15 07:02:49;;;;;;;6.38;2.30;;;;;;;24.11;68.77;99661.59;4989192;28;105955;-75
2021/07/15 07:05:15;;;;;;;5.32;1.77;;;;;;;24.14;66.29;99666.50;4988002;28;106479;-72
2021/07/15 07:07:42;;;;;;;4.90;2.25;;;;;;;24.31;65.74;99666.22;4989294;28;105914;-80
2021/07/15 07:10:09;;;;;;;4.50;2.13;;;;;;;24.45;65.92;99670.00;4971300;28;107950;-77
2021/07/15 07:12:35;;;;;;;5.25;2.20;;;;;;;24.76;64.99;99663.69;4988213;28;106447;-72
2021/07/15 07:15:00;;;;;;;3.50;2.30;;;;;;;24.91;63.42;99668.28;4989557;28;105781;-73
2021/07/15 07:17:26;;;;;;;2.38;1.98;;;;;;;25.02;62.87;99658.16;4988625;28;106068;-74
2021/07/15 07:19:51;;;;;;;4.57;1.90;;;;;;;25.03;62.58;99651.59;4988170;28;105877;-73
2021/07/15 07:22:17;;;;;;;6.72;2.30;;;;;;;25.15;61.71;99657.50;4988168;28;105817;-74
2021/07/15 07:24:42;;;;;;;4.28;2.10;;;;;;;25.11;61.08;99657.28;4989122;28;105789;-76
2021/07/15 07:27:08;;;;;;;4.93;2.08;;;;;;;24.95;61.37;99659.25;4988591;28;106233;-74
2021/07/15 07:29:33;;;;;;;5.00;1.90;;;;;;;24.74;61.12;99654.97;4988018;28;106530;-73
2021/07/15 07:31:58;;;;;;;5.00;2.33;;;;;;;24.63;61.63;99655.00;4986659;28;106504;-72
2021/07/15 07:34:24;;;;;;;8.85;3.03;;;;;;;24.61;62.08;99654.47;4988615;28;106973;-73
2021/07/15 07:36:49;;;;;;;4.93;2.67;;;;;;;24.66;62.05;99649.00;4987126;28;106209;-71
2021/07/15 07:39:15;;;;;;;5.43;2.15;;;;;;;24.72;61.85;99649.81;4996383;28;106161;-70
2021/07/15 07:41:41;;;;;;;5.90;2.40;;;;;;;24.75;61.74;99653.88;4994121;28;106518;-71
2021/07/15 07:44:06;;;;;;;8.25;2.50;;;;;;;24.91;61.65;99652.72;5005045;28;106902;-72
2021/07/15 07:46:32;;;;;;;5.30;2.75;;;;;;;25.04;60.84;99650.50;5007343;28;106214;-72
2021/07/15 07:48:57;;;;;;;5.22;2.20;;;;;;;25.04;60.44;99653.22;4998772;28;107167;-74
2021/07/15 07:51:23;;;;;;;4.13;2.55;;;;;;;24.98;59.60;99655.97;4996075;28;106669;-74
2021/07/15 07:53:48;;;;;;;4.72;2.75;;;;;;;24.79;59.62;99661.22;4996048;28;106091;-74
2021/07/15 07:56:15;;;;;;;5.70;2.50;;;;;;;24.69;59.31;99671.31;5001243;28;106237;-72
2021/07/15 07:58:41;;;;;;;4.60;2.67;;;;;;;24.69;59.59;99668.59;4997394;28;107850;-72
2021/07/15 08:01:06;;;;;;;6.50;2.72;;;;;;;24.75;59.79;99662.06;4996736;28;106068;-74
2021/07/15 08:03:32;;;;;;;5.90;3.00;;;;;;;24.91;59.53;99663.63;4989317;28;106117;-71
2021/07/15 08:05:57;;;;;;;6.22;3.05;;;;;;;25.02;59.10;99656.22;4987817;28;106200;-68
2021/07/15 08:08:23;;;;;;;4.57;3.10;;;;;;;25.11;58.67;99659.16;4987319;28;106634;-69
2021/07/15 08:10:49;;;;;;;4.28;2.80;;;;;;;25.26;58.91;99669.19;4987717;28;105791;-71
2021/07/15 08:13:15;;;;;;;7.63;3.28;;;;;;;25.42;58.51;99656.31;4998914;28;105938;-72
2021/07/15 08:15:40;;;;;;;7.13;2.88;;;;;;;25.58;58.20;99665.22;4996556;28;106272;-71
2021/07/15 08:18:06;;;;;;;5.10;2.92;;;;;;;25.71;57.55;99663.75;4996709;28;106007;-71
2021/07/15 08:20:31;;;;;;;6.00;3.00;;;;;;;25.79;57.50;99680.34;4986937;28;106064;-70
2021/07/15 08:22:57;;;;;;;7.60;3.30;;;;;;;25.91;56.79;99666.31;4987622;28;105987;-70
2021/07/15 08:25:23;;;;;;;6.18;4.05;;;;;;;25.95;55.98;99669.31;4986903;28;106228;-71
2021/07/15 08:27:49;;;;;;;4.97;3.15;;;;;;;25.92;56.05;99688.97;4986927;28;106581;-74
2021/07/15 08:30:16;;;;;;;6.00;3.03;;;;;;;26.06;56.03;99692.69;4985764;28;106165;-70
2021/07/15 08:32:41;;;;;;;5.18;3.20;;;;;;;26.31;56.10;99691.69;4989739;28;105993;-71
2021/07/15 08:35:07;;;;;;;5.72;3.10;;;;;;;26.58;55.62;99693.03;4989404;28;106141;-70
2021/07/15 08:37:34;;;;;;;6.35;2.90;;;;;;;26.76;54.98;99685.22;4990270;28;106637;-69
2021/07/15 08:39:59;;;;;;;6.13;2.88;;;;;;;26.87;54.28;99684.00;4990251;28;106904;-69
2021/07/15 08:42:26;;;;;;;5.50;2.97;;;;;;;27.02;53.73;99681.09;4991429;28;106248;-69
2021/07/15 08:44:53;;;;;;;8.77;3.15;;;;;;;27.12;53.14;99690.25;4990089;28;105961;-70
2021/07/15 08:47:19;;;;;;;6.28;3.65;;;;;;;27.06;52.11;99702.38;4989729;28;106711;-70
2021/07/15 08:49:44;;;;;;;6.93;3.33;;;;;;;27.05;52.12;99703.47;4999372;28;106061;-70
2021/07/15 08:52:14;;;;;;;11.95;3.20;;;;;;;27.09;51.93;99709.97;4997321;28;106205;-68
2021/07/15 08:57:24;;;;;;;4.57;3.00;;;;;;;27.57;51.17;99715.41;4993643;28;106392;-70
2021/07/15 08:59:49;;;;;;;7.65;2.88;;;;;;;27.65;51.03;99725.69;4999025;28;105997;-69
2021/07/15 09:02:18;;;;;;;4.05;3.10;;;;;;;27.75;51.02;99718.41;4998723;28;105988;-69
2021/07/15 09:04:44;;;;;;;7.70;3.33;;;;;;;27.84;50.26;99724.84;4990030;28;106142;-68
2021/07/15 09:07:09;;;;;;;14.15;3.47;;;;;;;27.85;49.71;99729.22;4989317;28;106002;-70
2021/07/15 09:09:35;;;;;;;8.75;3.30;;;;;;;28.03;50.13;99725.69;4992511;28;105891;-68
2021/07/15 09:12:00;;;;;;;6.28;2.70;;;;;;;28.43;49.51;99729.94;5001019;28;105865;-69
2021/07/15 09:14:26;;;;;;;4.78;2.85;;;;;;;28.91;48.95;99737.88;4992617;28;106524;-70
2021/07/15 09:16:57;;;;;;;13.70;11.23;;;;;;;29.33;48.00;99738.66;4989650;28;107102;-70
2021/07/15 09:19:25;;;;;;;7.47;3.92;;;;;;;29.92;47.17;99734.38;4989697;28;105904;-69
2021/07/15 09:21:52;;;;;;;6.22;3.00;;;;;;;30.33;45.49;99745.19;4992712;28;105913;-68
2021/07/15 09:24:38;;;;;;;7.70;2.80;;;;;;;30.68;45.09;99742.63;4997750;28;106422;-68
2021/07/15 09:27:24;;;;;;;3.95;2.78;;;;;;;31.12;44.50;99750.28;4989727;28;106731;-70
2021/07/15 09:30:12;;;;;;;6.07;3.15;;;;;;;31.55;43.55;99750.34;4988396;28;106316;-69
2021/07/15 09:32:54;;;;;;;6.70;2.83;;;;;;;31.64;42.16;99755.09;4996552;28;106480;-70
2021/07/15 09:35:36;;;;;;;7.43;2.70;;;;;;;31.62;42.00;99747.16;5010198;28;105835;-71
2021/07/15 09:38:16;;;;;;;5.90;2.65;;;;;;;31.38;41.51;99744.81;5009205;28;105851;-70
2021/07/15 09:40:52;;;;;;;6.35;2.75;;;;;;;31.40;41.13;99739.81;5008945;28;106056;-69
2021/07/15 09:43:17;;;;;;;6.70;2.55;;;;;;;31.47;41.07;99747.59;5010017;28;106147;-71
2021/07/15 09:45:45;;;;;;;5.50;2.80;;;;;;;31.33;40.42;99754.06;5009046;28;106207;-71
2021/07/15 09:48:22;;;;;;;3.45;2.65;;;;;;;31.24;40.71;99750.47;5009429;28;106559;-71
2021/07/15 09:50:48;;;;;;;6.47;2.97;;;;;;;31.41;40.48;99752.44;5009129;28;105847;-70
2021/07/15 09:53:22;;;;;;;7.15;3.10;;;;;;;31.91;40.15;99748.47;4992931;28;105910;-72
2021/07/15 09:55:57;;;;;;;4.13;2.70;;;;;;;32.52;39.77;99744.81;4989412;28;105951;-74
2021/07/15 09:58:23;;;;;;;4.55;2.80;;;;;;;32.76;38.77;99738.75;4989551;28;106630;-75
2021/07/15 10:00:48;;;;;;;4.70;2.83;;;;;;;32.87;37.58;99733.69;4989461;28;106371;-70
2021/07/15 10:03:15;;;;;;;4.15;3.42;;;;;;;32.65;37.57;99732.75;4990286;28;105944;-70
2021/07/15 10:05:53;;;;;;;4.18;2.83;;;;;;;32.68;38.05;99736.81;4988210;28;106305;-70
2021/07/15 10:08:26;;;;;;;6.15;2.85;;;;;;;32.72;37.15;99732.28;4996612;28;106755;-70
2021/07/15 10:10:53;;;;;;;4.32;2.70;;;;;;;33.09;37.87;99743.63;4998619;28;106429;-72
2021/07/15 10:13:22;;;;;;;7.32;3.83;;;;;;;33.40;37.31;99735.03;4996813;28;105996;-71
2021/07/15 10:15:48;;;;;;;8.63;2.97;;;;;;;33.80;36.57;99731.00;4998928;28;106678;-71
2021/07/15 10:18:14;;;;;;;6.30;3.13;;;;;;;33.91;36.05;99736.94;4999652;28;106394;-70
2021/07/15 10:20:56;;;;;;;8.45;3.15;;;;;;;33.89;36.30;99753.06;4999891;28;106057;-71
2021/07/15 10:23:31;;;;;;;5.50;3.15;;;;;;;33.84;35.94;99756.00;4996297;28;106075;-72
2021/07/15 10:25:58;;;;;;;5.47;3.10;;;;;;;33.67;35.84;99760.50;4996908;28;106249;-72
2021/07/15 10:28:24;;;;;;;5.35;3.00;;;;;;;33.30;36.09;99754.75;4989458;28;106512;-70
2021/07/15 10:30:50;;;;;;;7.40;3.20;;;;;;;32.59;36.72;99758.91;4988558;28;106135;-69
2021/07/15 10:33:16;;;;;;;8.10;3.40;;;;;;;32.01;37.25;99752.81;4989929;28;105877;-72
2021/07/15 10:35:43;;;;;;;9.73;3.30;;;;;;;31.40;38.49;99761.84;4989257;28;106554;-72
2021/07/15 10:38:08;;;;;;;7.43;3.47;;;;;;;30.89;39.41;99764.06;4987230;28;109556;-72
2021/07/15 10:40:33;;;;;;;7.72;3.47;;;;;;;30.56;40.25;99761.66;4988634;28;106000;-70
2021/07/15 10:42:59;;;;;;;7.00;3.70;;;;;;;30.19;40.74;99766.41;4989508;28;105881;-70
2021/07/15 10:45:25;;;;;;;6.97;3.28;;;;;;;29.82;41.59;99771.88;4988702;28;106253;-70
2021/07/15 10:47:54;;;;;;;6.57;3.50;;;;;;;29.54;41.69;99782.94;4998188;28;105822;-69
2021/07/15 10:50:20;;;;;;;6.68;3.25;;;;;;;29.29;42.44;99787.03;4998211;28;106268;-71
2021/07/15 10:52:46;;;;;;;6.32;3.70;;;;;;;29.17;42.71;99787.53;4991392;28;105975;-69
2021/07/15 10:55:13;;;;;;;8.07;3.53;;;;;;;29.09;43.05;99788.22;4988498;28;106120;-70
2021/07/15 10:57:39;;;;;;;7.38;4.50;;;;;;;29.02;43.44;99787.84;4997522;28;106213;-70
2021/07/15 11:00:26;;;;;;;5.05;3.35;;;;;;;28.90;43.53;99791.06;4997607;28;106047;-71
2021/07/15 11:03:07;;;;;;;11.43;3.80;;;;;;;28.79;44.35;99789.63;4997818;28;106259;-70
2021/07/15 11:05:32;;;;;;;13.38;3.90;;;;;;;28.74;44.60;99786.97;4988708;28;105952;-71
2021/07/15 11:07:58;;;;;;;8.25;4.18;;;;;;;28.62;44.44;99777.25;4988206;28;106591;-73
2021/07/15 11:10:23;;;;;;;14.48;3.72;;;;;;;28.59;45.00;99786.09;4988386;28;105873;-70
2021/07/15 11:12:59;;;;;;;8.32;3.88;;;;;;;28.51;44.46;99775.81;4989281;28;106202;-72
2021/07/15 11:15:46;;;;;;;6.25;3.28;;;;;;;28.59;45.09;99786.09;4988721;28;106166;-72
2021/07/15 11:18:37;;;;;;;8.10;4.00;;;;;;;28.87;44.75;99786.19;4988315;28;105782;-72
2021/07/15 11:21:30;;;;;;;4.40;3.60;;;;;;;29.40;44.82;99786.81;4986221;28;106476;-70
2021/07/15 11:24:21;;;;;;;9.55;3.78;;;;;;;29.98;43.69;99775.13;4968612;28;105994;-70
2021/07/15 11:26:47;;;;;;;9.70;4.53;;;;;;;30.40;42.78;99763.97;4965044;28;106075;-71
2021/07/15 11:29:13;;;;;;;7.95;4.10;;;;;;;30.81;42.06;99762.09;4968155;28;105883;-71
2021/07/15 11:31:51;;;;;;;6.35;3.55;;;;;;;31.11;41.39;99759.66;4968102;28;106425;-72
2021/07/15 11:34:39;;;;;;;4.03;3.20;;;;;;;31.12;41.17;99750.28;4968581;28;105911;-74
2021/07/15 11:37:26;;;;;;;6.17;3.10;;;;;;;31.23;41.20;99751.59;4968502;28;106282;-70
2021/07/15 11:39:53;;;;;;;8.32;3.95;;;;;;;31.37;40.62;99746.78;4967862;28;106656;-71
2021/07/15 11:42:19;;;;;;;8.27;3.53;;;;;;;31.63;40.59;99745.22;4967907;28;105759;-72
2021/07/15 11:45:09;;;;;;;5.70;3.88;;;;;;;32.00;39.41;99743.75;4968306;28;106301;-68
2021/07/15 11:47:49;;;;;;;5.53;3.75;;;;;;;32.11;39.14;99740.66;4968379;28;106267;-66
2021/07/15 11:50:27;;;;;;;9.10;4.60;;;;;;;31.91;38.99;99742.94;4967666;28;107047;-69
2021/07/15 11:53:30;;;;;;;8.85;3.58;;;;;;;31.75;39.43;99747.31;4979524;28;106111;-71
2021/07/15 11:55:57;;;;;;;7.72;3.70;;;;;;;32.05;39.09;99743.59;4966103;28;106467;-71
2021/07/15 11:58:42;;;;;;;8.35;3.97;;;;;;;32.47;38.14;99747.75;4968376;28;106072;-68
2021/07/15 12:01:17;;;;;;;9.07;4.38;;;;;;;32.78;38.17;99750.28;4966135;28;106048;-69
2021/07/15 12:04:01;;;;;;;9.35;3.63;;;;;;;32.32;37.60;99746.34;4997594;28;105980;-69
2021/07/15 12:06:28;;;;;;;6.68;3.47;;;;;;;31.94;38.14;99739.53;4999809;28;105875;-68
2021/07/15 12:09:09;;;;;;;7.55;3.72;;;;;;;31.85;38.75;99739.56;5004342;28;106301;-68
2021/07/15 12:11:39;;;;;;;8.40;4.30;;;;;;;32.11;38.84;99735.13;5010871;28;105909;-67
2021/07/15 12:14:06;;;;;;;7.68;4.30;;;;;;;32.09;38.75;99748.44;5010874;28;106205;-68
2021/07/15 12:16:34;;;;;;;7.43;3.72;;;;;;;32.01;38.71;99742.63;5011362;28;106076;-66
2021/07/15 12:19:10;;;;;;;7.32;3.95;;;;;;;32.04;38.80;99741.97;4990891;28;106156;-66
2021/07/15 12:21:37;;;;;;;5.40;4.00;;;;;;;31.91;38.97;99742.16;4990410;28;107355;-67
2021/07/15 12:24:10;;;;;;;7.38;3.97;;;;;;;31.99;39.11;99733.88;4996906;28;106940;-66
2021/07/15 12:26:36;;;;;;;9.23;3.97;;;;;;;32.24;39.20;99731.44;5001171;28;106604;-66
2021/07/15 12:29:03;;;;;;;9.40;4.25;;;;;;;32.44;38.48;99723.59;5011061;28;106140;-67
2021/07/15 12:31:30;;;;;;;10.13;3.53;;;;;;;32.49;38.48;99723.41;5010897;28;106325;-66
2021/07/15 12:34:02;;;;;;;8.70;4.20;;;;;;;32.46;37.95;99732.34;5010859;28;105923;-67
2021/07/15 12:36:27;;;;;;;9.30;4.03;;;;;;;32.42;38.06;99728.63;5011477;28;106072;-72
2021/07/15 12:38:57;;;;;;;9.57;3.80;;;;;;;32.25;37.84;99723.97;5010557;28;106208;-74
2021/07/15 12:41:36;;;;;;;8.10;4.00;;;;;;;32.15;37.82;99719.59;5010351;28;106622;-73
2021/07/15 12:44:04;;;;;;;;;;;;;;;32.28;38.31;99724.13;5011316;28;106047;-73
2021/07/15 12:46:29;;;;;;;4.82;3.88;;;;;;;32.59;37.76;99723.06;5011166;28;106272;-69
2021/07/15 12:48:57;;;;;;;7.32;3.95;;;;;;;32.47;37.59;99715.47;5011179;28;106147;-68
2021/07/15 12:51:28;;;;;;;10.07;4.78;;;;;;;32.47;37.52;99717.44;4988689;28;107261;-73
2021/07/15 12:53:54;;;;;;;9.73;4.30;;;;;;;32.49;37.41;99721.50;4985152;28;106851;-70
2021/07/15 12:56:22;;;;;;;7.95;4.30;;;;;;;32.56;36.77;99729.22;4991197;28;106205;-73
2021/07/15 12:59:03;;;;;;;7.40;3.83;;;;;;;32.67;37.29;99718.63;4990327;28;106249;-74
